Terminal Aerodrome Forecast
Issued by NWS

Current Version | Previous Version | Graphics & Text | Print | Product List | Glossary On
Versions: 1 2 3 4 5 6 7 8 9 10 11 12 13 14 15 16 17 18 19 20 21 22 23 24 25 26 27 28 29 30 31 32 33 34 35 36
000
FTUS41 KPBZ 272006 AAB
TAFMGW
TAF AMD
KMGW 272006Z 2720/2818 VRB03KT P6SM VCSH BKN035
     FM272300 VRB03KT P6SM SCT060
     FM280900 00000KT 5SM BR SCT120
     FM281400 23005KT P6SM VCSH BKN025=

USA.gov is the U.S. government's official web portal to all federal, state and local government web resources and services.